sensor_id;sensor_type;location;lat;lon;timestamp;P1;durP1;ratioP1;P2;durP2;ratioP2
1276;SDS011;631;51.024;13.826;2023-06-22T00:01:55;19.90;;;18.60;;
1276;SDS011;631;51.024;13.826;2023-06-22T00:04:21;19.63;;;18.23;;
1276;SDS011;631;51.024;13.826;2023-06-22T00:06:47;21.20;;;19.70;;
1276;SDS011;631;51.024;13.826;2023-06-22T00:09:12;20.97;;;19.40;;
1276;SDS011;631;51.024;13.826;2023-06-22T00:11:38;19.40;;;18.10;;
1276;SDS011;631;51.024;13.826;2023-06-22T00:14:04;19.87;;;18.43;;
1276;SDS011;631;51.024;13.826;2023-06-22T00:16:31;19.53;;;18.13;;
1276;SDS011;631;51.024;13.826;2023-06-22T00:18:57;20.37;;;18.97;;
1276;SDS011;631;51.024;13.826;2023-06-22T00:21:25;19.80;;;18.30;;
1276;SDS011;631;51.024;13.826;2023-06-22T00:23:51;20.27;;;18.77;;
1276;SDS011;631;51.024;13.826;2023-06-22T00:26:17;20.60;;;19.10;;
1276;SDS011;631;51.024;13.826;2023-06-22T00:28:43;20.30;;;18.80;;
1276;SDS011;631;51.024;13.826;2023-06-22T00:31:08;20.23;;;18.80;;
1276;SDS011;631;51.024;13.826;2023-06-22T00:33:34;19.93;;;18.43;;
1276;SDS011;631;51.024;13.826;2023-06-22T00:36:00;20.73;;;19.23;;
1276;SDS011;631;51.024;13.826;2023-06-22T00:38:27;20.67;;;19.20;;
1276;SDS011;631;51.024;13.826;2023-06-22T00:40:53;20.63;;;19.03;;
1276;SDS011;631;51.024;13.826;2023-06-22T00:43:19;20.73;;;19.13;;
1276;SDS011;631;51.024;13.826;2023-06-22T00:45:45;19.90;;;18.50;;
1276;SDS011;631;51.024;13.826;2023-06-22T00:48:11;20.80;;;19.10;;
1276;SDS011;631;51.024;13.826;2023-06-22T00:50:37;20.17;;;18.77;;
1276;SDS011;631;51.024;13.826;2023-06-22T00:53:05;20.50;;;19.10;;
1276;SDS011;631;51.024;13.826;2023-06-22T00:55:33;19.77;;;18.37;;
1276;SDS011;631;51.024;13.826;2023-06-22T00:58:02;20.07;;;18.67;;
1276;SDS011;631;51.024;13.826;2023-06-22T01:00:35;20.63;;;19.17;;
1276;SDS011;631;51.024;13.826;2023-06-22T01:03:02;19.83;;;18.40;;
1276;SDS011;631;51.024;13.826;2023-06-22T01:05:28;20.30;;;18.80;;
1276;SDS011;631;51.024;13.826;2023-06-22T01:10:34;20.43;;;18.83;;
1276;SDS011;631;51.024;13.826;2023-06-22T01:16:07;21.20;;;19.70;;
1276;SDS011;631;51.024;13.826;2023-06-22T01:18:35;22.10;;;20.40;;
1276;SDS011;631;51.024;13.826;2023-06-22T01:21:05;21.83;;;20.13;;
1276;SDS011;631;51.024;13.826;2023-06-22T01:23:44;20.10;;;18.70;;
1276;SDS011;631;51.024;13.826;2023-06-22T01:28:55;20.27;;;18.60;;
1276;SDS011;631;51.024;13.826;2023-06-22T01:31:24;21.60;;;20.00;;
1276;SDS011;631;51.024;13.826;2023-06-22T01:33:59;20.70;;;19.10;;
1276;SDS011;631;51.024;13.826;2023-06-22T01:36:27;20.00;;;18.50;;
1276;SDS011;631;51.024;13.826;2023-06-22T01:38:55;20.40;;;18.73;;
1276;SDS011;631;51.024;13.826;2023-06-22T01:41:25;21.00;;;19.50;;
1276;SDS011;631;51.024;13.826;2023-06-22T01:43:52;20.90;;;19.40;;
1276;SDS011;631;51.024;13.826;2023-06-22T01:46:19;20.50;;;19.10;;
1276;SDS011;631;51.024;13.826;2023-06-22T01:48:45;20.87;;;19.23;;
1276;SDS011;631;51.024;13.826;2023-06-22T01:51:12;21.10;;;19.60;;
1276;SDS011;631;51.024;13.826;2023-06-22T01:53:38;22.30;;;20.60;;
1276;SDS011;631;51.024;13.826;2023-06-22T01:56:04;21.33;;;19.57;;
1276;SDS011;631;51.024;13.826;2023-06-22T01:58:30;21.43;;;19.80;;
1276;SDS011;631;51.024;13.826;2023-06-22T02:00:58;22.37;;;20.77;;
1276;SDS011;631;51.024;13.826;2023-06-22T02:03:41;22.47;;;20.77;;
1276;SDS011;631;51.024;13.826;2023-06-22T02:06:23;21.70;;;20.00;;
1276;SDS011;631;51.024;13.826;2023-06-22T02:08:57;21.10;;;19.50;;
1276;SDS011;631;51.024;13.826;2023-06-22T02:11:26;20.20;;;18.70;;
1276;SDS011;631;51.024;13.826;2023-06-22T02:13:55;21.23;;;19.60;;
1276;SDS011;631;51.024;13.826;2023-06-22T02:16:22;20.60;;;19.00;;
1276;SDS011;631;51.024;13.826;2023-06-22T02:18:49;21.47;;;19.77;;
1276;SDS011;631;51.024;13.826;2023-06-22T02:21:18;21.73;;;20.13;;
1276;SDS011;631;51.024;13.826;2023-06-22T02:23:44;21.43;;;19.73;;
1276;SDS011;631;51.024;13.826;2023-06-22T02:26:10;22.00;;;20.40;;
1276;SDS011;631;51.024;13.826;2023-06-22T02:28:36;21.17;;;19.67;;
1276;SDS011;631;51.024;13.826;2023-06-22T02:31:01;21.73;;;20.00;;
1276;SDS011;631;51.024;13.826;2023-06-22T02:33:27;21.67;;;20.00;;
1276;SDS011;631;51.024;13.826;2023-06-22T02:35:52;21.80;;;20.20;;
1276;SDS011;631;51.024;13.826;2023-06-22T02:38:18;21.20;;;19.50;;
1276;SDS011;631;51.024;13.826;2023-06-22T02:40:45;20.63;;;19.13;;
1276;SDS011;631;51.024;13.826;2023-06-22T02:43:10;20.67;;;19.17;;
1276;SDS011;631;51.024;13.826;2023-06-22T02:45:36;20.50;;;18.90;;
1276;SDS011;631;51.024;13.826;2023-06-22T02:48:02;21.00;;;19.40;;
1276;SDS011;631;51.024;13.826;2023-06-22T02:50:27;21.03;;;19.33;;
1276;SDS011;631;51.024;13.826;2023-06-22T02:52:53;20.57;;;18.97;;
1276;SDS011;631;51.024;13.826;2023-06-22T02:55:19;21.70;;;20.00;;
1276;SDS011;631;51.024;13.826;2023-06-22T02:57:44;22.10;;;20.17;;
1276;SDS011;631;51.024;13.826;2023-06-22T03:00:12;20.90;;;19.30;;
1276;SDS011;631;51.024;13.826;2023-06-22T03:02:44;21.20;;;19.60;;
1276;SDS011;631;51.024;13.826;2023-06-22T03:05:11;20.03;;;18.53;;
1276;SDS011;631;51.024;13.826;2023-06-22T03:07:39;21.10;;;19.40;;
1276;SDS011;631;51.024;13.826;2023-06-22T03:10:06;22.17;;;20.23;;
1276;SDS011;631;51.024;13.826;2023-06-22T03:12:32;21.73;;;19.93;;
1276;SDS011;631;51.024;13.826;2023-06-22T03:14:57;21.17;;;19.57;;
1276;SDS011;631;51.024;13.826;2023-06-22T03:17:23;20.50;;;19.00;;
1276;SDS011;631;51.024;13.826;2023-06-22T03:19:49;22.07;;;20.30;;
1276;SDS011;631;51.024;13.826;2023-06-22T03:22:15;20.30;;;18.70;;
1276;SDS011;631;51.024;13.826;2023-06-22T03:24:40;21.67;;;20.03;;
1276;SDS011;631;51.024;13.826;2023-06-22T03:27:06;20.60;;;19.00;;
1276;SDS011;631;51.024;13.826;2023-06-22T03:29:32;21.00;;;19.40;;
1276;SDS011;631;51.024;13.826;2023-06-22T03:31:57;20.17;;;18.67;;
1276;SDS011;631;51.024;13.826;2023-06-22T03:34:23;21.00;;;19.37;;
1276;SDS011;631;51.024;13.826;2023-06-22T03:36:48;20.03;;;18.53;;
1276;SDS011;631;51.024;13.826;2023-06-22T03:39:14;20.13;;;18.67;;
1276;SDS011;631;51.024;13.826;2023-06-22T03:41:40;21.47;;;19.87;;
1276;SDS011;631;51.024;13.826;2023-06-22T03:44:05;21.30;;;19.70;;
1276;SDS011;631;51.024;13.826;2023-06-22T03:46:31;20.70;;;19.10;;
1276;SDS011;631;51.024;13.826;2023-06-22T03:48:56;22.37;;;20.57;;
1276;SDS011;631;51.024;13.826;2023-06-22T03:51:22;21.40;;;19.70;;
1276;SDS011;631;51.024;13.826;2023-06-22T03:53:48;20.27;;;18.87;;
1276;SDS011;631;51.024;13.826;2023-06-22T03:56:14;21.90;;;20.10;;
1276;SDS011;631;51.024;13.826;2023-06-22T03:58:45;21.50;;;19.60;;
1276;SDS011;631;51.024;13.826;2023-06-22T04:01:10;21.20;;;19.50;;
1276;SDS011;631;51.024;13.826;2023-06-22T04:03:36;21.00;;;19.10;;
1276;SDS011;631;51.024;13.826;2023-06-22T04:06:02;20.20;;;18.70;;
1276;SDS011;631;51.024;13.826;2023-06-22T04:08:29;21.17;;;19.40;;
1276;SDS011;631;51.024;13.826;2023-06-22T04:10:55;20.20;;;18.67;;
1276;SDS011;631;51.024;13.826;2023-06-22T04:13:20;20.33;;;18.83;;
1276;SDS011;631;51.024;13.826;2023-06-22T04:15:46;21.30;;;19.60;;
1276;SDS011;631;51.024;13.826;2023-06-22T04:18:12;19.90;;;18.30;;
1276;SDS011;631;51.024;13.826;2023-06-22T04:20:38;20.50;;;18.90;;
1276;SDS011;631;51.024;13.826;2023-06-22T04:23:04;21.10;;;19.37;;
1276;SDS011;631;51.024;13.826;2023-06-22T04:25:30;19.97;;;18.20;;
1276;SDS011;631;51.024;13.826;2023-06-22T04:27:55;21.37;;;19.63;;
1276;SDS011;631;51.024;13.826;2023-06-22T04:30:21;22.30;;;20.40;;
1276;SDS011;631;51.024;13.826;2023-06-22T04:32:47;21.00;;;19.40;;
1276;SDS011;631;51.024;13.826;2023-06-22T04:35:31;19.60;;;18.03;;
1276;SDS011;631;51.024;13.826;2023-06-22T04:37:57;22.17;;;20.47;;
1276;SDS011;631;51.024;13.826;2023-06-22T04:40:23;20.10;;;18.50;;
1276;SDS011;631;51.024;13.826;2023-06-22T04:42:49;22.17;;;20.37;;
1276;SDS011;631;51.024;13.826;2023-06-22T04:45:18;21.60;;;19.90;;
1276;SDS011;631;51.024;13.826;2023-06-22T04:47:45;22.37;;;20.37;;
1276;SDS011;631;51.024;13.826;2023-06-22T04:50:13;20.80;;;19.10;;
1276;SDS011;631;51.024;13.826;2023-06-22T04:52:39;21.37;;;19.47;;
1276;SDS011;631;51.024;13.826;2023-06-22T04:55:05;20.03;;;18.43;;
1276;SDS011;631;51.024;13.826;2023-06-22T04:57:31;21.50;;;19.90;;
1276;SDS011;631;51.024;13.826;2023-06-22T05:00:00;20.03;;;18.50;;
1276;SDS011;631;51.024;13.826;2023-06-22T05:02:26;21.60;;;19.67;;
1276;SDS011;631;51.024;13.826;2023-06-22T05:04:56;20.70;;;19.10;;
1276;SDS011;631;51.024;13.826;2023-06-22T05:07:22;21.83;;;20.23;;
1276;SDS011;631;51.024;13.826;2023-06-22T05:09:50;22.67;;;20.97;;
1276;SDS011;631;51.024;13.826;2023-06-22T05:12:16;20.83;;;19.23;;
1276;SDS011;631;51.024;13.826;2023-06-22T05:14:41;22.77;;;20.87;;
1276;SDS011;631;51.024;13.826;2023-06-22T05:17:07;20.93;;;19.33;;
1276;SDS011;631;51.024;13.826;2023-06-22T05:19:38;20.83;;;19.30;;
1276;SDS011;631;51.024;13.826;2023-06-22T05:22:04;21.93;;;20.40;;
1276;SDS011;631;51.024;13.826;2023-06-22T05:24:31;20.70;;;19.20;;
1276;SDS011;631;51.024;13.826;2023-06-22T05:26:57;21.27;;;19.67;;
1276;SDS011;631;51.024;13.826;2023-06-22T05:29:22;21.40;;;19.80;;
1276;SDS011;631;51.024;13.826;2023-06-22T05:31:48;20.53;;;19.03;;
1276;SDS011;631;51.024;13.826;2023-06-22T05:34:14;20.60;;;19.20;;
1276;SDS011;631;51.024;13.826;2023-06-22T05:36:40;20.17;;;18.57;;
1276;SDS011;631;51.024;13.826;2023-06-22T05:39:11;19.90;;;18.40;;
1276;SDS011;631;51.024;13.826;2023-06-22T05:41:41;19.23;;;17.73;;
1276;SDS011;631;51.024;13.826;2023-06-22T05:44:08;20.87;;;19.30;;
1276;SDS011;631;51.024;13.826;2023-06-22T05:46:33;21.20;;;19.70;;
1276;SDS011;631;51.024;13.826;2023-06-22T05:48:59;21.00;;;19.50;;
1276;SDS011;631;51.024;13.826;2023-06-22T05:51:25;19.70;;;18.20;;
1276;SDS011;631;51.024;13.826;2023-06-22T05:53:50;20.63;;;19.00;;
1276;SDS011;631;51.024;13.826;2023-06-22T05:56:16;20.87;;;19.27;;
1276;SDS011;631;51.024;13.826;2023-06-22T05:58:42;21.50;;;19.90;;
1276;SDS011;631;51.024;13.826;2023-06-22T06:01:07;20.07;;;18.67;;
1276;SDS011;631;51.024;13.826;2023-06-22T06:03:33;20.73;;;19.20;;
1276;SDS011;631;51.024;13.826;2023-06-22T06:05:59;20.90;;;19.47;;
1276;SDS011;631;51.024;13.826;2023-06-22T06:08:27;20.90;;;19.43;;
1276;SDS011;631;51.024;13.826;2023-06-22T06:10:53;19.13;;;17.73;;
1276;SDS011;631;51.024;13.826;2023-06-22T06:13:20;18.90;;;17.60;;
1276;SDS011;631;51.024;13.826;2023-06-22T06:15:45;21.57;;;19.93;;
1276;SDS011;631;51.024;13.826;2023-06-22T06:18:11;20.30;;;18.90;;
1276;SDS011;631;51.024;13.826;2023-06-22T06:20:37;19.67;;;18.27;;
1276;SDS011;631;51.024;13.826;2023-06-22T06:23:02;18.57;;;17.27;;
1276;SDS011;631;51.024;13.826;2023-06-22T06:25:28;21.20;;;19.70;;
1276;SDS011;631;51.024;13.826;2023-06-22T06:27:53;19.50;;;18.10;;
1276;SDS011;631;51.024;13.826;2023-06-22T06:30:19;20.77;;;19.27;;
1276;SDS011;631;51.024;13.826;2023-06-22T06:32:47;19.67;;;18.37;;
1276;SDS011;631;51.024;13.826;2023-06-22T06:35:13;19.83;;;18.53;;
1276;SDS011;631;51.024;13.826;2023-06-22T06:37:41;19.83;;;18.40;;
1276;SDS011;631;51.024;13.826;2023-06-22T06:40:13;18.77;;;17.47;;
1276;SDS011;631;51.024;13.826;2023-06-22T06:42:40;18.53;;;17.20;;
1276;SDS011;631;51.024;13.826;2023-06-22T06:45:09;18.60;;;17.20;;
1276;SDS011;631;51.024;13.826;2023-06-22T06:47:45;19.20;;;17.90;;
1276;SDS011;631;51.024;13.826;2023-06-22T06:50:11;19.13;;;17.73;;
1276;SDS011;631;51.024;13.826;2023-06-22T06:52:37;19.77;;;18.40;;
1276;SDS011;631;51.024;13.826;2023-06-22T06:55:03;18.90;;;17.60;;
1276;SDS011;631;51.024;13.826;2023-06-22T06:57:32;19.20;;;17.70;;
1276;SDS011;631;51.024;13.826;2023-06-22T06:59:58;19.57;;;18.27;;
1276;SDS011;631;51.024;13.826;2023-06-22T07:02:25;20.17;;;18.70;;
1276;SDS011;631;51.024;13.826;2023-06-22T07:04:52;20.70;;;19.20;;
1276;SDS011;631;51.024;13.826;2023-06-22T07:07:20;19.73;;;18.33;;
1276;SDS011;631;51.024;13.826;2023-06-22T07:09:46;21.27;;;19.87;;
1276;SDS011;631;51.024;13.826;2023-06-22T07:12:12;19.33;;;18.03;;
1276;SDS011;631;51.024;13.826;2023-06-22T07:14:37;21.17;;;19.67;;
1276;SDS011;631;51.024;13.826;2023-06-22T07:17:03;20.43;;;19.03;;
1276;SDS011;631;51.024;13.826;2023-06-22T07:19:29;19.27;;;17.97;;
1276;SDS011;631;51.024;13.826;2023-06-22T07:21:56;20.37;;;18.93;;
1276;SDS011;631;51.024;13.826;2023-06-22T07:24:22;21.47;;;20.07;;
1276;SDS011;631;51.024;13.826;2023-06-22T07:26:50;21.63;;;20.13;;
1276;SDS011;631;51.024;13.826;2023-06-22T07:29:19;19.83;;;18.50;;
1276;SDS011;631;51.024;13.826;2023-06-22T07:31:49;20.20;;;18.87;;
1276;SDS011;631;51.024;13.826;2023-06-22T07:34:16;21.73;;;20.20;;
1276;SDS011;631;51.024;13.826;2023-06-22T07:36:42;21.20;;;19.80;;
1276;SDS011;631;51.024;13.826;2023-06-22T07:39:08;22.00;;;20.60;;
1276;SDS011;631;51.024;13.826;2023-06-22T07:41:34;20.70;;;19.40;;
1276;SDS011;631;51.024;13.826;2023-06-22T07:43:59;20.70;;;19.23;;
1276;SDS011;631;51.024;13.826;2023-06-22T07:46:27;20.73;;;19.40;;
1276;SDS011;631;51.024;13.826;2023-06-22T07:48:55;21.40;;;19.80;;
1276;SDS011;631;51.024;13.826;2023-06-22T07:51:21;20.23;;;18.83;;
1276;SDS011;631;51.024;13.826;2023-06-22T07:53:47;20.60;;;19.30;;
1276;SDS011;631;51.024;13.826;2023-06-22T07:56:13;21.50;;;20.20;;
1276;SDS011;631;51.024;13.826;2023-06-22T07:58:43;19.40;;;18.10;;
1276;SDS011;631;51.024;13.826;2023-06-22T08:01:09;20.73;;;19.30;;
1276;SDS011;631;51.024;13.826;2023-06-22T08:03:36;21.57;;;20.17;;
1276;SDS011;631;51.024;13.826;2023-06-22T08:06:01;21.20;;;19.80;;
1276;SDS011;631;51.024;13.826;2023-06-22T08:08:27;20.07;;;18.77;;
1276;SDS011;631;51.024;13.826;2023-06-22T08:10:52;19.97;;;18.67;;
1276;SDS011;631;51.024;13.826;2023-06-22T08:13:18;19.60;;;18.30;;
1276;SDS011;631;51.024;13.826;2023-06-22T08:15:44;19.10;;;17.90;;
1276;SDS011;631;51.024;13.826;2023-06-22T08:18:10;18.73;;;17.63;;
1276;SDS011;631;51.024;13.826;2023-06-22T08:20:35;19.93;;;18.63;;
1276;SDS011;631;51.024;13.826;2023-06-22T08:23:01;18.40;;;17.20;;
1276;SDS011;631;51.024;13.826;2023-06-22T08:25:31;19.50;;;18.30;;
1276;SDS011;631;51.024;13.826;2023-06-22T08:28:00;18.90;;;17.80;;
1276;SDS011;631;51.024;13.826;2023-06-22T08:30:27;19.37;;;18.27;;
1276;SDS011;631;51.024;13.826;2023-06-22T08:32:53;18.53;;;17.47;;
1276;SDS011;631;51.024;13.826;2023-06-22T08:35:20;18.43;;;17.33;;
1276;SDS011;631;51.024;13.826;2023-06-22T08:37:47;18.20;;;16.97;;
1276;SDS011;631;51.024;13.826;2023-06-22T08:40:17;17.73;;;16.67;;
1276;SDS011;631;51.024;13.826;2023-06-22T08:42:44;19.10;;;17.80;;
1276;SDS011;631;51.024;13.826;2023-06-22T08:45:11;19.50;;;18.30;;
1276;SDS011;631;51.024;13.826;2023-06-22T08:47:37;18.03;;;16.87;;
1276;SDS011;631;51.024;13.826;2023-06-22T08:50:02;17.63;;;16.53;;
1276;SDS011;631;51.024;13.826;2023-06-22T08:52:28;17.43;;;16.33;;
1276;SDS011;631;51.024;13.826;2023-06-22T08:54:54;18.27;;;17.17;;
1276;SDS011;631;51.024;13.826;2023-06-22T08:57:20;18.07;;;16.87;;
1276;SDS011;631;51.024;13.826;2023-06-22T08:59:47;18.73;;;17.60;;
1276;SDS011;631;51.024;13.826;2023-06-22T09:02:12;17.60;;;16.60;;
1276;SDS011;631;51.024;13.826;2023-06-22T09:04:38;18.10;;;16.90;;
1276;SDS011;631;51.024;13.826;2023-06-22T09:07:03;19.90;;;18.70;;
1276;SDS011;631;51.024;13.826;2023-06-22T09:09:29;17.90;;;16.80;;
1276;SDS011;631;51.024;13.826;2023-06-22T09:11:55;18.30;;;17.27;;
1276;SDS011;631;51.024;13.826;2023-06-22T09:14:21;18.27;;;17.07;;
1276;SDS011;631;51.024;13.826;2023-06-22T09:16:46;18.90;;;17.77;;
1276;SDS011;631;51.024;13.826;2023-06-22T09:19:12;18.37;;;17.17;;
1276;SDS011;631;51.024;13.826;2023-06-22T09:21:37;17.17;;;16.17;;
1276;SDS011;631;51.024;13.826;2023-06-22T09:24:03;18.00;;;16.90;;
1276;SDS011;631;51.024;13.826;2023-06-22T09:26:29;16.90;;;15.90;;
1276;SDS011;631;51.024;13.826;2023-06-22T09:28:55;17.23;;;16.23;;
1276;SDS011;631;51.024;13.826;2023-06-22T09:31:21;17.63;;;16.63;;
1276;SDS011;631;51.024;13.826;2023-06-22T09:33:51;17.97;;;16.93;;
1276;SDS011;631;51.024;13.826;2023-06-22T09:36:18;18.03;;;17.03;;
1276;SDS011;631;51.024;13.826;2023-06-22T09:38:43;17.10;;;16.10;;
1276;SDS011;631;51.024;13.826;2023-06-22T09:41:09;17.00;;;16.10;;
1276;SDS011;631;51.024;13.826;2023-06-22T09:43:34;17.57;;;16.57;;
1276;SDS011;631;51.024;13.826;2023-06-22T09:46:01;18.03;;;16.97;;
1276;SDS011;631;51.024;13.826;2023-06-22T09:48:27;17.90;;;16.83;;
1276;SDS011;631;51.024;13.826;2023-06-22T09:50:54;17.20;;;16.30;;
1276;SDS011;631;51.024;13.826;2023-06-22T09:53:19;17.50;;;16.50;;
1276;SDS011;631;51.024;13.826;2023-06-22T09:55:45;16.87;;;15.97;;
1276;SDS011;631;51.024;13.826;2023-06-22T09:58:11;17.50;;;16.50;;
1276;SDS011;631;51.024;13.826;2023-06-22T10:00:36;16.70;;;15.80;;
1276;SDS011;631;51.024;13.826;2023-06-22T10:03:07;17.70;;;16.67;;
1276;SDS011;631;51.024;13.826;2023-06-22T10:05:34;18.00;;;17.00;;
1276;SDS011;631;51.024;13.826;2023-06-22T10:07:59;17.53;;;16.63;;
1276;SDS011;631;51.024;13.826;2023-06-22T10:10:25;18.30;;;17.20;;
1276;SDS011;631;51.024;13.826;2023-06-22T10:12:57;19.47;;;18.37;;
1276;SDS011;631;51.024;13.826;2023-06-22T10:15:27;17.93;;;16.93;;
1276;SDS011;631;51.024;13.826;2023-06-22T10:17:53;18.57;;;17.47;;
1276;SDS011;631;51.024;13.826;2023-06-22T10:20:18;18.77;;;17.77;;
1276;SDS011;631;51.024;13.826;2023-06-22T10:22:45;18.13;;;17.13;;
1276;SDS011;631;51.024;13.826;2023-06-22T10:25:11;19.03;;;17.93;;
1276;SDS011;631;51.024;13.826;2023-06-22T10:27:38;16.50;;;15.60;;
1276;SDS011;631;51.024;13.826;2023-06-22T10:30:05;17.83;;;16.90;;
1276;SDS011;631;51.024;13.826;2023-06-22T10:32:32;19.63;;;18.43;;
1276;SDS011;631;51.024;13.826;2023-06-22T10:34:58;17.80;;;16.70;;
1276;SDS011;631;51.024;13.826;2023-06-22T10:37:23;18.67;;;17.57;;
1276;SDS011;631;51.024;13.826;2023-06-22T10:39:49;20.00;;;18.87;;
1276;SDS011;631;51.024;13.826;2023-06-22T10:42:14;18.60;;;17.37;;
1276;SDS011;631;51.024;13.826;2023-06-22T10:44:40;19.10;;;17.90;;
1276;SDS011;631;51.024;13.826;2023-06-22T10:47:08;18.87;;;17.80;;
1276;SDS011;631;51.024;13.826;2023-06-22T10:49:33;17.77;;;16.77;;
1276;SDS011;631;51.024;13.826;2023-06-22T10:51:59;18.63;;;17.63;;
1276;SDS011;631;51.024;13.826;2023-06-22T10:54:24;18.77;;;17.77;;
1276;SDS011;631;51.024;13.826;2023-06-22T10:56:50;19.47;;;18.37;;
1276;SDS011;631;51.024;13.826;2023-06-22T10:59:16;18.33;;;17.27;;
1276;SDS011;631;51.024;13.826;2023-06-22T11:01:41;18.70;;;17.70;;
1276;SDS011;631;51.024;13.826;2023-06-22T11:04:07;17.67;;;16.67;;
1276;SDS011;631;51.024;13.826;2023-06-22T11:06:33;19.23;;;18.20;;
1276;SDS011;631;51.024;13.826;2023-06-22T11:08:58;18.03;;;17.13;;
1276;SDS011;631;51.024;13.826;2023-06-22T11:11:25;17.60;;;16.70;;
1276;SDS011;631;51.024;13.826;2023-06-22T11:13:50;18.77;;;17.77;;
1276;SDS011;631;51.024;13.826;2023-06-22T11:16:17;19.40;;;18.40;;
1276;SDS011;631;51.024;13.826;2023-06-22T11:18:42;18.33;;;17.27;;
1276;SDS011;631;51.024;13.826;2023-06-22T11:21:08;18.60;;;17.50;;
1276;SDS011;631;51.024;13.826;2023-06-22T11:23:34;16.67;;;15.77;;
1276;SDS011;631;51.024;13.826;2023-06-22T11:25:59;17.50;;;16.60;;
1276;SDS011;631;51.024;13.826;2023-06-22T11:28:25;18.83;;;17.83;;
1276;SDS011;631;51.024;13.826;2023-06-22T11:30:51;18.20;;;17.30;;
1276;SDS011;631;51.024;13.826;2023-06-22T11:33:16;18.20;;;17.00;;
1276;SDS011;631;51.024;13.826;2023-06-22T11:35:42;17.27;;;16.37;;
1276;SDS011;631;51.024;13.826;2023-06-22T11:38:08;18.60;;;17.60;;
1276;SDS011;631;51.024;13.826;2023-06-22T11:40:33;18.73;;;17.73;;
1276;SDS011;631;51.024;13.826;2023-06-22T11:42:59;17.90;;;16.93;;
1276;SDS011;631;51.024;13.826;2023-06-22T11:45:24;18.00;;;17.00;;
1276;SDS011;631;51.024;13.826;2023-06-22T11:47:50;18.10;;;17.13;;
1276;SDS011;631;51.024;13.826;2023-06-22T11:50:16;18.87;;;17.67;;
1276;SDS011;631;51.024;13.826;2023-06-22T11:52:42;18.60;;;17.60;;
1276;SDS011;631;51.024;13.826;2023-06-22T11:55:07;19.40;;;18.30;;
1276;SDS011;631;51.024;13.826;2023-06-22T11:57:33;18.87;;;17.87;;
1276;SDS011;631;51.024;13.826;2023-06-22T12:00:01;17.80;;;16.90;;
1276;SDS011;631;51.024;13.826;2023-06-22T12:02:31;19.23;;;18.20;;
1276;SDS011;631;51.024;13.826;2023-06-22T12:04:57;19.30;;;18.30;;
1276;SDS011;631;51.024;13.826;2023-06-22T12:07:23;19.70;;;18.47;;
1276;SDS011;631;51.024;13.826;2023-06-22T12:09:49;18.80;;;17.80;;
1276;SDS011;631;51.024;13.826;2023-06-22T12:12:14;17.70;;;16.77;;
1276;SDS011;631;51.024;13.826;2023-06-22T12:14:40;18.57;;;17.57;;
1276;SDS011;631;51.024;13.826;2023-06-22T12:17:06;18.90;;;17.90;;
1276;SDS011;631;51.024;13.826;2023-06-22T12:19:31;18.70;;;17.70;;
1276;SDS011;631;51.024;13.826;2023-06-22T12:21:57;17.03;;;16.13;;
1276;SDS011;631;51.024;13.826;2023-06-22T12:24:22;19.27;;;18.27;;
1276;SDS011;631;51.024;13.826;2023-06-22T12:26:48;17.30;;;16.40;;
1276;SDS011;631;51.024;13.826;2023-06-22T12:29:14;18.30;;;17.30;;
1276;SDS011;631;51.024;13.826;2023-06-22T12:31:40;19.80;;;18.70;;
1276;SDS011;631;51.024;13.826;2023-06-22T12:34:06;18.50;;;17.53;;
1276;SDS011;631;51.024;13.826;2023-06-22T12:36:32;19.60;;;18.57;;
1276;SDS011;631;51.024;13.826;2023-06-22T12:38:57;17.47;;;16.57;;
1276;SDS011;631;51.024;13.826;2023-06-22T12:41:23;18.50;;;17.50;;
1276;SDS011;631;51.024;13.826;2023-06-22T12:43:48;18.40;;;17.50;;
1276;SDS011;631;51.024;13.826;2023-06-22T12:46:14;18.80;;;17.80;;
1276;SDS011;631;51.024;13.826;2023-06-22T12:48:40;18.37;;;17.17;;
1276;SDS011;631;51.024;13.826;2023-06-22T12:51:08;18.90;;;17.97;;
1276;SDS011;631;51.024;13.826;2023-06-22T12:53:34;17.60;;;16.67;;
1276;SDS011;631;51.024;13.826;2023-06-22T12:56:00;18.80;;;17.80;;
1276;SDS011;631;51.024;13.826;2023-06-22T12:58:26;17.60;;;16.70;;
1276;SDS011;631;51.024;13.826;2023-06-22T13:00:51;18.20;;;17.13;;
1276;SDS011;631;51.024;13.826;2023-06-22T13:03:17;18.23;;;17.33;;
1276;SDS011;631;51.024;13.826;2023-06-22T13:05:42;19.13;;;18.23;;
1276;SDS011;631;51.024;13.826;2023-06-22T13:08:08;18.97;;;17.97;;
1276;SDS011;631;51.024;13.826;2023-06-22T13:10:33;17.97;;;17.07;;
1276;SDS011;631;51.024;13.826;2023-06-22T13:12:59;18.00;;;17.10;;
1276;SDS011;631;51.024;13.826;2023-06-22T13:15:28;19.20;;;18.20;;
1276;SDS011;631;51.024;13.826;2023-06-22T13:17:54;18.93;;;18.03;;
1276;SDS011;631;51.024;13.826;2023-06-22T13:20:20;18.70;;;17.70;;
1276;SDS011;631;51.024;13.826;2023-06-22T13:22:46;19.00;;;18.10;;
1276;SDS011;631;51.024;13.826;2023-06-22T13:25:12;17.80;;;16.80;;
1276;SDS011;631;51.024;13.826;2023-06-22T13:27:41;17.40;;;16.50;;
1276;SDS011;631;51.024;13.826;2023-06-22T13:30:07;18.73;;;17.73;;
1276;SDS011;631;51.024;13.826;2023-06-22T13:32:33;18.37;;;17.40;;
1276;SDS011;631;51.024;13.826;2023-06-22T13:34:59;18.50;;;17.60;;
1276;SDS011;631;51.024;13.826;2023-06-22T13:37:25;18.57;;;17.57;;
1276;SDS011;631;51.024;13.826;2023-06-22T13:39:52;18.50;;;17.60;;
1276;SDS011;631;51.024;13.826;2023-06-22T13:42:17;18.40;;;17.50;;
1276;SDS011;631;51.024;13.826;2023-06-22T13:44:43;18.10;;;17.17;;
1276;SDS011;631;51.024;13.826;2023-06-22T13:47:09;18.80;;;17.83;;
1276;SDS011;631;51.024;13.826;2023-06-22T13:49:34;18.43;;;17.53;;
1276;SDS011;631;51.024;13.826;2023-06-22T13:52:00;18.77;;;17.77;;
1276;SDS011;631;51.024;13.826;2023-06-22T13:54:25;18.07;;;17.17;;
1276;SDS011;631;51.024;13.826;2023-06-22T13:56:51;19.00;;;18.00;;
1276;SDS011;631;51.024;13.826;2023-06-22T13:59:17;19.53;;;18.53;;
1276;SDS011;631;51.024;13.826;2023-06-22T14:01:42;19.40;;;18.40;;
1276;SDS011;631;51.024;13.826;2023-06-22T14:04:08;19.20;;;18.20;;
1276;SDS011;631;51.024;13.826;2023-06-22T14:06:34;18.93;;;18.00;;
1276;SDS011;631;51.024;13.826;2023-06-22T14:09:00;19.70;;;18.70;;
1276;SDS011;631;51.024;13.826;2023-06-22T14:11:26;20.23;;;19.13;;
1276;SDS011;631;51.024;13.826;2023-06-22T14:13:51;22.90;;;21.50;;
1276;SDS011;631;51.024;13.826;2023-06-22T14:16:17;19.80;;;18.80;;
1276;SDS011;631;51.024;13.826;2023-06-22T14:18:44;19.77;;;18.77;;
1276;SDS011;631;51.024;13.826;2023-06-22T14:21:10;20.53;;;19.43;;
1276;SDS011;631;51.024;13.826;2023-06-22T14:23:35;20.10;;;19.00;;
1276;SDS011;631;51.024;13.826;2023-06-22T14:26:02;18.87;;;17.87;;
1276;SDS011;631;51.024;13.826;2023-06-22T14:28:28;19.40;;;18.40;;
1276;SDS011;631;51.024;13.826;2023-06-22T14:30:53;19.77;;;18.67;;
1276;SDS011;631;51.024;13.826;2023-06-22T14:33:19;19.80;;;18.70;;
1276;SDS011;631;51.024;13.826;2023-06-22T14:35:45;18.40;;;17.40;;
1276;SDS011;631;51.024;13.826;2023-06-22T14:38:10;19.03;;;18.03;;
1276;SDS011;631;51.024;13.826;2023-06-22T14:40:36;18.27;;;17.30;;
1276;SDS011;631;51.024;13.826;2023-06-22T14:43:01;18.10;;;17.10;;
1276;SDS011;631;51.024;13.826;2023-06-22T14:45:27;18.47;;;17.47;;
1276;SDS011;631;51.024;13.826;2023-06-22T14:47:53;20.70;;;19.60;;
1276;SDS011;631;51.024;13.826;2023-06-22T14:50:18;20.77;;;19.57;;
1276;SDS011;631;51.024;13.826;2023-06-22T14:52:44;20.80;;;19.70;;